createdAt,value
2023-04-14T00:01:17.547Z,2.42
2023-04-14T00:03:45.485Z,2.30
2023-04-14T00:06:12.832Z,2.72
2023-04-14T00:08:39.913Z,2.53
2023-04-14T00:11:07.015Z,2.60
2023-04-14T00:13:34.247Z,2.47
2023-04-14T00:16:01.498Z,2.80
2023-04-14T00:18:28.713Z,2.63
2023-04-14T00:20:55.818Z,3.08
2023-04-14T00:23:22.929Z,2.50
2023-04-14T00:25:51.193Z,2.53
2023-04-14T00:28:18.384Z,2.88
2023-04-14T00:30:47.271Z,2.85
2023-04-14T00:33:14.356Z,2.17
2023-04-14T00:35:41.497Z,1.88
2023-04-14T00:38:08.605Z,2.60
2023-04-14T00:40:35.696Z,2.15
2023-04-14T00:43:02.797Z,2.15
2023-04-14T00:45:29.961Z,2.38
2023-04-14T00:47:58.632Z,2.70
2023-04-14T00:50:26.246Z,2.38
2023-04-14T00:52:53.782Z,2.28
2023-04-14T00:55:21.539Z,2.00
2023-04-14T00:57:49.815Z,1.80
2023-04-14T01:00:17.201Z,2.30
2023-04-14T01:02:44.663Z,1.95
2023-04-14T01:05:12.473Z,1.92
2023-04-14T01:07:40.714Z,1.73
2023-04-14T01:10:11.660Z,1.77
2023-04-14T01:13:23.685Z,1.80
2023-04-14T01:16:01.484Z,1.83
2023-04-14T01:18:41.288Z,1.95
2023-04-14T01:21:17.914Z,1.98
2023-04-14T01:24:17.021Z,2.00
2023-04-14T01:26:45.722Z,1.98
2023-04-14T01:29:54.214Z,1.80
2023-04-14T01:32:24.180Z,2.03
2023-04-14T01:34:56.869Z,1.80
2023-04-14T01:37:32.298Z,1.70
2023-04-14T01:40:03.805Z,1.85
2023-04-14T01:42:36.285Z,1.70
2023-04-14T01:45:21.149Z,2.10
2023-04-14T01:47:49.054Z,2.00
2023-04-14T01:50:19.515Z,1.77
2023-04-14T01:52:51.553Z,2.15
2023-04-14T01:55:20.914Z,2.28
2023-04-14T01:57:51.250Z,2.25
2023-04-14T02:00:20.731Z,2.20
2023-04-14T02:02:52.466Z,2.03
2023-04-14T02:05:21.446Z,3.38
2023-04-14T02:07:52.747Z,3.03
2023-04-14T02:10:53.092Z,3.22
2023-04-14T02:13:22.269Z,2.63
2023-04-14T02:15:54.064Z,2.65
2023-04-14T02:18:23.566Z,2.50
2023-04-14T02:20:53.471Z,2.70
2023-04-14T02:23:20.635Z,2.15
2023-04-14T02:25:56.251Z,2.20
2023-04-14T02:28:28.721Z,2.30
2023-04-14T02:30:59.523Z,1.90
2023-04-14T02:33:31.835Z,2.22
2023-04-14T02:36:13.353Z,2.75
2023-04-14T02:38:47.940Z,2.17
2023-04-14T02:41:25.081Z,2.63
2023-04-14T02:44:07.575Z,1.83
2023-04-14T02:46:41.249Z,1.88
2023-04-14T02:49:13.620Z,1.60
2023-04-14T02:51:44.073Z,1.70
2023-04-14T02:54:14.334Z,1.88
2023-04-14T02:56:46.072Z,1.70
2023-04-14T02:59:13.929Z,2.17
2023-04-14T03:01:54.252Z,2.25
2023-04-14T03:04:23.062Z,1.60
2023-04-14T03:06:51.511Z,2.03
2023-04-14T03:09:20.489Z,1.60
2023-04-14T03:11:47.983Z,2.30
2023-04-14T03:14:18.244Z,1.90
2023-04-14T03:16:46.664Z,2.00
2023-04-14T03:19:14.884Z,2.33
2023-04-14T03:21:46.849Z,1.90
2023-04-14T03:24:19.300Z,1.80
2023-04-14T03:26:49.503Z,2.45
2023-04-14T03:29:20.164Z,2.15
2023-04-14T03:31:48.317Z,2.00
2023-04-14T03:34:16.781Z,1.88
2023-04-14T03:36:51.108Z,1.75
2023-04-14T03:39:20.394Z,1.58
2023-04-14T03:41:51.823Z,2.00
2023-04-14T03:44:21.824Z,1.83
2023-04-14T03:46:51.363Z,2.33
2023-04-14T03:49:21.416Z,2.35
2023-04-14T03:52:23.065Z,1.98
2023-04-14T03:54:53.518Z,1.70
2023-04-14T03:57:23.403Z,2.35
2023-04-14T03:59:52.428Z,2.63
2023-04-14T04:02:24.393Z,1.80
2023-04-14T04:04:53.440Z,2.15
2023-04-14T04:07:21.630Z,1.95
2023-04-14T04:09:50.770Z,2.28
2023-04-14T04:12:21.078Z,2.05
2023-04-14T04:14:48.522Z,2.10
2023-04-14T04:17:19.688Z,2.20
2023-04-14T04:19:48.813Z,2.20
2023-04-14T04:22:20.517Z,1.90
2023-04-14T04:24:53.881Z,2.10
2023-04-14T04:27:28.403Z,2.03
2023-04-14T04:30:08.138Z,1.92
2023-04-14T04:32:38.589Z,2.20
2023-04-14T04:35:07.494Z,1.88
2023-04-14T04:37:37.963Z,1.85
2023-04-14T04:40:38.665Z,2.15
2023-04-14T04:43:12.164Z,1.80
2023-04-14T04:46:04.445Z,2.05
2023-04-14T04:48:31.907Z,1.90
2023-04-14T04:50:59.164Z,2.10
2023-04-14T04:53:26.368Z,1.63
2023-04-14T04:55:53.434Z,1.70
2023-04-14T04:58:20.583Z,1.92
2023-04-14T05:01:56.979Z,1.90
2023-04-14T05:04:24.258Z,1.70
2023-04-14T05:06:52.124Z,1.98
2023-04-14T05:09:19.191Z,1.85
2023-04-14T05:11:46.462Z,2.10
2023-04-14T05:14:13.525Z,2.05
2023-04-14T05:17:12.226Z,1.80
2023-04-14T05:19:39.562Z,1.75
2023-04-14T05:22:06.599Z,2.45
2023-04-14T05:24:33.667Z,1.70
2023-04-14T05:27:13.665Z,1.70
2023-04-14T05:29:41.904Z,1.80
2023-04-14T05:32:10.814Z,1.88
2023-04-14T05:34:37.908Z,1.55
2023-04-14T05:37:05.040Z,1.48
2023-04-14T05:39:32.090Z,2.28
2023-04-14T05:42:02.223Z,1.60
2023-04-14T05:44:29.320Z,1.67
2023-04-14T05:46:56.592Z,1.55
2023-04-14T05:49:23.876Z,1.70
2023-04-14T05:51:51.158Z,1.70
2023-04-14T05:54:18.236Z,1.90
2023-04-14T05:56:45.488Z,1.90
2023-04-14T05:59:12.752Z,1.80
2023-04-14T06:01:39.909Z,1.70
2023-04-14T06:04:07.421Z,1.55
2023-04-14T06:06:35.216Z,1.88
2023-04-14T06:09:02.514Z,2.42
2023-04-14T06:11:29.684Z,1.98
2023-04-14T06:13:56.837Z,1.70
2023-04-14T06:16:23.978Z,1.90
2023-04-14T06:18:51.110Z,1.70
2023-04-14T06:21:50.387Z,1.90
2023-04-14T06:24:17.507Z,1.92
2023-04-14T06:26:44.643Z,1.55
2023-04-14T06:29:12.116Z,1.95
2023-04-14T06:32:11.093Z,1.92
2023-04-14T06:34:38.301Z,1.58
2023-04-14T06:37:05.459Z,1.77
2023-04-14T06:39:32.551Z,2.03
2023-04-14T06:41:59.665Z,1.98
2023-04-14T06:44:26.924Z,1.83
2023-04-14T06:46:55.304Z,2.45
2023-04-14T06:49:24.424Z,2.00
2023-04-14T06:51:51.604Z,2.40
2023-04-14T06:54:18.721Z,2.42
2023-04-14T06:56:46.189Z,2.40
2023-04-14T06:59:46.721Z,2.10
2023-04-14T07:02:13.942Z,2.50
2023-04-14T07:04:41.325Z,2.10
2023-04-14T07:07:08.410Z,2.20
2023-04-14T07:09:35.688Z,2.25
2023-04-14T07:12:03.016Z,2.22
2023-04-14T07:14:31.797Z,2.22
2023-04-14T07:16:58.966Z,1.83
2023-04-14T07:19:26.211Z,2.03
2023-04-14T07:21:53.375Z,2.45
2023-04-14T07:24:20.619Z,2.10
2023-04-14T07:26:47.854Z,2.03
2023-04-14T07:29:15.061Z,2.13
2023-04-14T07:31:42.925Z,2.58
2023-04-14T07:34:10.074Z,2.90
2023-04-14T07:36:37.397Z,2.22
2023-04-14T07:39:04.760Z,2.33
2023-04-14T07:41:32.043Z,2.45
2023-04-14T07:44:00.422Z,2.67
2023-04-14T07:46:28.058Z,2.30
2023-04-14T07:48:55.250Z,2.20
2023-04-14T07:51:22.741Z,2.70
2023-04-14T07:53:51.203Z,2.60
2023-04-14T07:56:22.049Z,2.40
2023-04-14T07:58:49.138Z,2.80
2023-04-14T08:01:17.154Z,3.05
2023-04-14T08:03:45.565Z,3.00
2023-04-14T08:06:13.468Z,3.13
2023-04-14T08:08:40.630Z,2.97
2023-04-14T08:11:07.915Z,3.30
2023-04-14T08:13:35.023Z,2.53
2023-04-14T08:16:02.220Z,2.55
2023-04-14T08:18:29.451Z,2.50
2023-04-14T08:20:56.808Z,2.42
2023-04-14T08:23:24.236Z,2.42
2023-04-14T08:25:51.686Z,2.20
2023-04-14T08:28:18.850Z,3.55
2023-04-14T08:30:47.832Z,3.08
2023-04-14T08:33:15.125Z,2.90
2023-04-14T08:35:43.349Z,2.67
2023-04-14T08:38:11.316Z,2.47
2023-04-14T08:40:43.852Z,2.63
2023-04-14T08:43:13.702Z,3.65
2023-04-14T08:45:43.267Z,2.58
2023-04-14T08:48:15.657Z,3.00
2023-04-14T08:51:07.422Z,2.65
2023-04-14T08:53:42.899Z,2.53
2023-04-14T08:56:13.315Z,2.80
2023-04-14T08:58:42.098Z,3.30
2023-04-14T09:01:09.876Z,2.92
2023-04-14T09:03:38.300Z,3.17
2023-04-14T09:06:06.569Z,2.88
2023-04-14T09:08:34.868Z,2.92
2023-04-14T09:11:03.695Z,3.00
2023-04-14T09:13:32.131Z,3.05
2023-04-14T09:16:00.331Z,3.15
2023-04-14T09:18:28.726Z,2.47
2023-04-14T09:21:50.818Z,2.92
2023-04-14T09:23:46.939Z,2.92
2023-04-14T09:26:14.357Z,2.05
2023-04-14T09:28:41.501Z,2.78
2023-04-14T09:31:10.090Z,3.10
2023-04-14T09:33:44.537Z,2.72
2023-04-14T09:36:26.089Z,3.58
2023-04-14T09:38:53.283Z,3.33
2023-04-14T09:41:28.448Z,2.60
2023-04-14T09:43:55.833Z,3.08
2023-04-14T10:17:28.574Z,3.30
2023-04-14T10:19:56.870Z,3.03
2023-04-14T10:22:27.876Z,3.58
2023-04-14T10:24:56.365Z,3.00
2023-04-14T10:27:44.144Z,3.38
2023-04-14T10:30:12.261Z,3.40
2023-04-14T10:32:40.885Z,3.45
2023-04-14T10:35:12.760Z,3.35
2023-04-14T10:37:39.985Z,3.05
2023-04-14T10:40:08.232Z,3.13
2023-04-14T10:42:55.127Z,2.95
2023-04-14T10:45:22.740Z,3.03
2023-04-14T10:47:50.994Z,3.47
2023-04-14T10:50:22.311Z,3.38
2023-04-14T10:52:56.937Z,3.42
2023-04-14T10:55:26.054Z,3.03
2023-04-14T10:57:54.750Z,3.13
2023-04-14T11:00:23.651Z,3.25
2023-04-14T11:03:20.252Z,2.67
2023-04-14T11:05:53.481Z,3.53
2023-04-14T11:08:28.168Z,3.35
2023-04-14T11:11:03.082Z,3.13
2023-04-14T11:13:31.559Z,3.33
2023-04-14T11:16:02.073Z,4.13
2023-04-14T11:18:33.373Z,3.35
2023-04-14T11:21:04.968Z,2.50
2023-04-14T11:23:33.215Z,2.45
2023-04-14T11:26:00.620Z,3.22
2023-04-14T11:28:38.500Z,2.83
2023-04-14T11:31:08.561Z,3.17
2023-04-14T11:33:38.353Z,2.92
2023-04-14T11:36:07.796Z,3.50
2023-04-14T11:38:36.326Z,3.28
2023-04-14T11:41:04.559Z,3.50
2023-04-14T11:43:31.996Z,3.85
2023-04-14T11:46:14.808Z,3.08
2023-04-14T11:48:42.309Z,3.67
2023-04-14T11:51:09.519Z,3.88
2023-04-14T11:53:36.735Z,3.80
2023-04-14T11:56:08.817Z,4.15
2023-04-14T11:58:35.991Z,4.60
2023-04-14T12:01:03.208Z,3.35
2023-04-14T12:03:35.899Z,3.30
2023-04-14T12:06:03.988Z,3.35
2023-04-14T12:08:32.302Z,3.17
2023-04-14T12:11:13.398Z,3.63
2023-04-14T12:13:41.896Z,3.53
2023-04-14T12:16:09.804Z,2.78
2023-04-14T12:18:36.999Z,3.10
2023-04-14T12:21:07.323Z,2.88
2023-04-14T12:23:40.854Z,3.53
2023-04-14T12:26:12.295Z,3.58
2023-04-14T12:28:41.680Z,2.65
2023-04-14T12:31:09.927Z,2.65
2023-04-14T12:33:37.559Z,3.05
2023-04-14T12:36:12.309Z,2.67
2023-04-14T12:38:39.974Z,2.70
2023-04-14T12:41:07.262Z,3.20
2023-04-14T12:43:36.587Z,2.72
2023-04-14T12:46:04.908Z,3.03
2023-04-14T12:48:46.158Z,2.85
2023-04-14T12:51:18.112Z,3.15
2023-04-14T12:53:47.107Z,2.90
2023-04-14T12:56:22.748Z,3.40
2023-04-14T12:58:51.464Z,3.42
2023-04-14T13:01:21.073Z,3.08
2023-04-14T13:03:51.942Z,3.00
2023-04-14T13:06:24.221Z,2.97
2023-04-14T13:08:53.305Z,2.70
2023-04-14T13:11:21.900Z,3.50
2023-04-14T13:13:49.131Z,3.60
2023-04-14T13:16:18.710Z,3.53
2023-04-14T13:18:48.961Z,3.00
2023-04-14T13:21:16.687Z,3.83
2023-04-14T13:23:44.422Z,2.70
2023-04-14T13:26:12.702Z,3.45
2023-04-14T13:28:39.837Z,3.17
2023-04-14T13:31:07.476Z,3.20
2023-04-14T13:33:34.697Z,3.42
2023-04-14T13:36:03.042Z,3.25
2023-04-14T13:38:31.151Z,3.50
2023-04-14T13:40:58.537Z,3.08
2023-04-14T13:43:26.478Z,3.78
2023-04-14T13:45:57.867Z,2.92
2023-04-14T13:48:25.492Z,2.90
2023-04-14T13:50:53.508Z,3.33
2023-04-14T13:53:20.690Z,2.80
2023-04-14T13:55:47.839Z,3.47
2023-04-14T13:58:14.919Z,2.88
2023-04-14T14:00:42.086Z,3.20
2023-04-14T14:03:09.402Z,3.53
2023-04-14T14:06:08.795Z,3.60
2023-04-14T14:08:39.216Z,3.58
2023-04-14T14:11:06.887Z,3.72
2023-04-14T14:13:38.819Z,3.00
2023-04-14T14:16:07.515Z,2.40
2023-04-14T14:18:37.514Z,3.30
2023-04-14T14:21:05.202Z,2.70
2023-04-14T14:23:32.528Z,3.70
2023-04-14T14:26:00.909Z,3.05
2023-04-14T14:28:28.268Z,2.70
2023-04-14T14:30:55.966Z,3.50
2023-04-14T14:33:23.289Z,3.40
2023-04-14T14:35:51.079Z,3.72
2023-04-14T14:38:18.203Z,3.50
2023-04-14T14:40:45.236Z,3.55
2023-04-14T14:43:12.428Z,3.45
2023-04-14T14:45:39.553Z,3.33
2023-04-14T14:48:06.694Z,3.45
2023-04-14T14:50:33.821Z,4.05
2023-04-14T14:53:00.927Z,3.72
2023-04-14T14:55:27.992Z,4.03
2023-04-14T14:57:55.162Z,3.47
2023-04-14T15:00:23.639Z,3.70
2023-04-14T15:02:51.008Z,4.53
2023-04-14T15:05:18.504Z,3.50
2023-04-14T15:07:45.631Z,3.17
2023-04-14T15:10:12.866Z,4.00
2023-04-14T15:12:40.008Z,3.78
2023-04-14T15:15:07.840Z,3.78
2023-04-14T15:17:35.199Z,4.40
2023-04-14T15:20:05.142Z,3.67
2023-04-14T15:22:32.719Z,3.95
2023-04-14T15:24:59.802Z,3.85
2023-04-14T15:27:27.099Z,3.78
2023-04-14T15:29:54.888Z,4.07
2023-04-14T15:32:25.446Z,4.40
2023-04-14T15:34:54.649Z,3.90
2023-04-14T15:37:21.874Z,3.35
2023-04-14T15:39:49.006Z,3.47
2023-04-14T15:42:16.163Z,3.50
2023-04-14T15:44:43.186Z,3.35
2023-04-14T15:47:10.428Z,3.53
2023-04-14T15:49:37.559Z,3.95
2023-04-14T15:52:06.016Z,3.55
2023-04-14T15:54:33.875Z,3.63
2023-04-14T15:57:02.491Z,3.00
2023-04-14T15:59:29.941Z,3.92
2023-04-14T16:01:57.283Z,3.95
2023-04-14T16:04:25.645Z,3.50
2023-04-14T16:06:54.257Z,3.50
2023-04-14T16:09:21.357Z,4.10
2023-04-14T16:11:48.628Z,3.33
2023-04-14T16:14:16.010Z,3.50
2023-04-14T16:16:47.190Z,3.33
2023-04-14T16:23:04.670Z,3.45
2023-04-14T16:25:31.893Z,3.00
2023-04-14T16:27:59.138Z,3.28
2023-04-14T16:30:26.253Z,3.60
2023-04-14T16:32:53.461Z,3.50
2023-04-14T16:35:20.693Z,3.58
2023-04-14T16:37:47.778Z,3.92
2023-04-14T16:40:14.934Z,3.55
2023-04-14T16:42:42.119Z,3.40
2023-04-14T16:45:09.551Z,4.10
2023-04-14T16:47:36.735Z,3.47
2023-04-14T16:50:04.051Z,3.97
2023-04-14T16:52:31.237Z,3.65
2023-04-14T16:54:59.459Z,3.63
2023-04-14T16:57:27.497Z,4.13
2023-04-14T17:01:04.421Z,3.97
2023-04-14T17:03:31.924Z,4.55
2023-04-14T17:05:59.175Z,4.28
2023-04-14T17:08:26.749Z,3.30
2023-04-14T17:10:53.814Z,4.35
2023-04-14T17:13:21.537Z,3.65
2023-04-14T17:15:58.757Z,3.95
2023-04-14T17:18:33.720Z,3.70
2023-04-14T17:21:01.169Z,4.78
2023-04-14T17:23:28.317Z,4.38
2023-04-14T17:25:57.278Z,4.03
2023-04-14T17:28:26.771Z,4.13
2023-04-14T17:30:54.016Z,4.03
2023-04-14T17:33:22.142Z,4.60
2023-04-14T17:35:49.372Z,4.15
2023-04-14T17:38:16.548Z,3.75
2023-04-14T17:40:43.695Z,3.83
2023-04-14T17:43:10.908Z,4.30
2023-04-14T17:45:40.227Z,3.67
2023-04-14T17:48:08.204Z,3.97
2023-04-14T17:50:35.945Z,3.70
2023-04-14T17:53:03.077Z,3.17
2023-04-14T17:55:30.278Z,3.40
2023-04-14T17:57:57.857Z,3.60
2023-04-14T18:00:25.018Z,3.95
2023-04-14T18:02:52.389Z,3.40
2023-04-14T18:05:19.467Z,3.28
2023-04-14T18:07:47.081Z,3.53
2023-04-14T18:10:14.204Z,3.42
2023-04-14T18:12:43.074Z,3.22
2023-04-14T18:15:15.384Z,4.00
2023-04-14T18:17:43.442Z,3.72
2023-04-14T18:20:11.204Z,3.55
2023-04-14T18:22:39.381Z,3.65
2023-04-14T18:25:08.384Z,3.30
2023-04-14T18:28:07.304Z,3.08
2023-04-14T18:30:34.607Z,4.18
2023-04-14T18:33:01.753Z,4.18
2023-04-14T18:35:29.605Z,3.63
2023-04-14T18:37:56.779Z,4.30
2023-04-14T18:40:24.471Z,3.97
2023-04-14T18:42:54.363Z,4.45
2023-04-14T18:45:21.881Z,4.72
2023-04-14T18:47:50.047Z,4.00
2023-04-14T18:50:17.345Z,4.43
2023-04-14T18:52:44.509Z,5.22
2023-04-14T18:55:11.572Z,5.10
2023-04-14T18:57:38.649Z,4.93
2023-04-14T19:00:06.597Z,4.07
2023-04-14T19:02:34.807Z,5.10
2023-04-14T19:05:02.616Z,4.05
2023-04-14T19:07:29.887Z,3.35
2023-04-14T19:09:57.013Z,3.75
2023-04-14T19:12:28.614Z,3.85
2023-04-14T19:14:56.124Z,3.53
2023-04-14T19:17:23.337Z,3.13
2023-04-14T19:19:50.550Z,3.42
2023-04-14T19:22:17.769Z,3.28
2023-04-14T19:24:45.055Z,3.47
2023-04-14T19:27:12.137Z,3.22
2023-04-14T19:29:39.291Z,4.07
2023-04-14T19:32:06.416Z,3.40
2023-04-14T19:34:33.505Z,3.78
2023-04-14T19:37:00.730Z,3.75
2023-04-14T19:39:27.806Z,3.45
2023-04-14T19:41:54.960Z,6.20
2023-04-14T19:44:22.093Z,3.17
2023-04-14T19:46:49.224Z,4.03
2023-04-14T19:49:16.426Z,3.22
2023-04-14T19:51:43.817Z,3.85
2023-04-14T19:54:11.139Z,2.85
2023-04-14T19:56:38.338Z,3.08
2023-04-14T19:59:05.675Z,3.30
2023-04-14T20:01:32.778Z,3.38
2023-04-14T20:04:04.985Z,3.60
2023-04-14T20:09:04.208Z,4.30
2023-04-14T20:11:31.906Z,3.65
2023-04-14T20:13:59.008Z,3.10
2023-04-14T20:16:26.779Z,3.00
2023-04-14T20:18:53.880Z,2.97
2023-04-14T20:21:20.960Z,2.53
2023-04-14T20:23:48.266Z,3.35
2023-04-14T20:26:16.587Z,2.63
2023-04-14T20:28:43.902Z,2.30
2023-04-14T20:31:11.765Z,2.15
2023-04-14T20:33:39.173Z,2.20
2023-04-14T20:36:07.162Z,2.58
2023-04-14T20:38:34.774Z,2.55
2023-04-14T20:41:02.023Z,3.40
2023-04-14T20:43:34.246Z,2.15
2023-04-14T20:46:01.722Z,2.05
2023-04-14T20:48:30.545Z,2.03
2023-04-14T20:50:58.011Z,2.60
2023-04-14T20:53:27.212Z,2.92
2023-04-14T20:55:55.065Z,2.80
2023-04-14T20:58:22.223Z,2.40
2023-04-14T21:00:49.508Z,3.40
2023-04-14T21:03:17.300Z,2.95
2023-04-14T21:05:44.561Z,3.30
2023-04-14T21:08:12.758Z,2.42
2023-04-14T21:11:02.210Z,3.00
2023-04-14T21:15:24.908Z,3.42
2023-04-14T21:16:15.868Z,2.22
2023-04-14T21:18:43.232Z,2.55
2023-04-14T21:21:11.582Z,2.75
2023-04-14T21:23:38.724Z,2.65
2023-04-14T21:26:06.215Z,3.40
2023-04-14T21:28:35.036Z,2.75
2023-04-14T21:31:03.104Z,2.78
2023-04-14T21:33:31.563Z,3.10
2023-04-14T21:35:59.119Z,3.00
2023-04-14T21:38:26.511Z,3.05
2023-04-14T21:40:53.785Z,1.90
2023-04-14T21:43:20.914Z,2.15
2023-04-14T21:45:48.238Z,2.10
2023-04-14T21:48:15.391Z,2.45
2023-04-14T21:50:43.571Z,1.98
2023-04-14T21:53:10.673Z,2.05
2023-04-14T21:55:38.302Z,2.03
2023-04-14T21:58:05.762Z,2.10
2023-04-14T22:00:32.959Z,2.80
2023-04-14T22:03:00.097Z,2.25
2023-04-14T22:05:27.344Z,2.40
2023-04-14T22:07:55.284Z,1.90
2023-04-14T22:10:23.219Z,1.88
2023-04-14T22:12:50.998Z,2.22
2023-04-14T22:15:18.159Z,1.85
2023-04-14T22:17:46.180Z,1.73
2023-04-14T22:20:14.092Z,1.10
2023-04-14T22:22:41.114Z,1.45
2023-04-14T22:25:09.870Z,1.25
2023-04-14T22:27:37.033Z,1.42
2023-04-14T22:30:36.172Z,2.00
2023-04-14T22:33:03.315Z,1.77
2023-04-14T22:35:31.099Z,2.00
2023-04-14T22:37:58.214Z,1.20
2023-04-14T22:40:25.272Z,1.80
2023-04-14T22:42:52.460Z,1.52
2023-04-14T22:45:19.517Z,1.95
2023-04-14T22:47:47.170Z,1.70
2023-04-14T22:50:14.589Z,1.70
2023-04-14T22:52:41.642Z,1.90
2023-04-14T22:56:18.073Z,1.63
2023-04-14T22:58:45.147Z,1.90
2023-04-14T23:01:21.975Z,1.98
2023-04-14T23:03:52.567Z,2.53
2023-04-14T23:06:20.664Z,2.22
2023-04-14T23:08:48.509Z,2.42
2023-04-14T23:11:19.776Z,2.25
2023-04-14T23:13:47.836Z,3.30
2023-04-14T23:16:16.919Z,2.50
2023-04-14T23:18:44.102Z,2.92
2023-04-14T23:22:19.942Z,2.80
2023-04-14T23:24:47.449Z,3.53
2023-04-14T23:27:14.550Z,2.30
2023-04-14T23:29:41.669Z,2.80
2023-04-14T23:32:09.547Z,3.42
2023-04-14T23:34:37.759Z,2.50
2023-04-14T23:37:05.609Z,2.33
2023-04-14T23:39:32.796Z,2.47
2023-04-14T23:42:00.722Z,2.20
2023-04-14T23:44:27.788Z,2.40
2023-04-14T23:46:55.459Z,2.30
2023-04-14T23:49:24.195Z,2.42
2023-04-14T23:51:59.459Z,2.58
2023-04-14T23:54:27.848Z,1.95
2023-04-14T23:56:54.986Z,2.25
2023-04-14T23:59:22.041Z,3.00
